createdAt,value
2023-04-07T00:02:05.125Z,92.20
2023-04-07T00:04:32.140Z,91.70
2023-04-07T00:06:59.346Z,91.70
2023-04-07T00:09:26.347Z,91.80
2023-04-07T00:11:53.420Z,91.80
2023-04-07T00:14:20.679Z,91.90
2023-04-07T00:16:47.590Z,91.60
2023-04-07T00:19:14.633Z,91.50
2023-04-07T00:21:41.648Z,91.10
2023-04-07T00:24:08.616Z,91.20
2023-04-07T00:26:35.575Z,91.10
2023-04-07T00:29:02.535Z,91.10
2023-04-07T00:32:22.331Z,91.20
2023-04-07T00:34:35.238Z,91.00
2023-04-07T00:37:02.288Z,90.70
2023-04-07T00:39:29.201Z,90.70
2023-04-07T00:41:56.462Z,90.90
2023-04-07T00:44:23.360Z,90.80
2023-04-07T00:46:50.501Z,90.60
2023-04-07T00:49:20.258Z,90.90
2023-04-07T00:51:47.617Z,90.90
2023-04-07T00:54:15.353Z,90.70
2023-04-07T00:56:43.798Z,90.70
2023-04-07T00:59:11.158Z,90.30
2023-04-07T01:01:46.229Z,90.50
2023-04-07T01:04:22.796Z,90.60
2023-04-07T01:06:53.249Z,90.60
2023-04-07T01:09:27.528Z,90.40
2023-04-07T01:12:10.078Z,91.00
2023-04-07T01:14:47.070Z,90.40
2023-04-07T01:17:15.554Z,90.50
2023-04-07T01:20:08.379Z,90.90
2023-04-07T01:22:45.900Z,90.40
2023-04-07T01:25:41.951Z,90.90
2023-04-07T01:28:27.897Z,91.20
2023-04-07T01:30:58.242Z,91.00
2023-04-07T01:33:27.136Z,91.20
2023-04-07T01:35:56.939Z,91.30
2023-04-07T01:38:25.996Z,90.90
2023-04-07T01:40:54.385Z,91.30
2023-04-07T01:43:23.341Z,91.60
2023-04-07T01:45:51.189Z,91.50
2023-04-07T01:48:18.359Z,91.30
2023-04-07T01:50:46.564Z,92.00
2023-04-07T01:53:15.489Z,91.80
2023-04-07T01:55:44.388Z,91.90
2023-04-07T01:58:11.243Z,92.00
2023-04-07T02:00:38.254Z,92.20
2023-04-07T02:03:37.171Z,92.30
2023-04-07T02:06:08.557Z,92.40
2023-04-07T02:08:39.222Z,92.10
2023-04-07T02:11:08.013Z,92.30
2023-04-07T02:13:37.793Z,92.50
2023-04-07T02:16:07.298Z,92.50
2023-04-07T02:18:35.157Z,92.60
2023-04-07T02:21:02.955Z,92.80
2023-04-07T02:23:30.320Z,92.40
2023-04-07T02:25:58.457Z,92.40
2023-04-07T02:28:44.052Z,92.30
2023-04-07T02:31:13.829Z,92.40
2023-04-07T02:33:40.999Z,92.10
2023-04-07T02:36:08.268Z,92.50
2023-04-07T02:38:35.644Z,92.30
2023-04-07T02:41:02.722Z,92.20
2023-04-07T02:43:29.747Z,92.70
2023-04-07T02:45:57.346Z,92.40
2023-04-07T02:48:24.379Z,92.40
2023-04-07T02:50:51.587Z,92.50
2023-04-07T02:53:18.704Z,92.50
2023-04-07T02:55:46.458Z,92.40
2023-04-07T02:58:13.617Z,92.70
2023-04-07T03:00:40.781Z,92.70
2023-04-07T03:03:08.092Z,92.50
2023-04-07T03:05:35.257Z,91.80
2023-04-07T03:08:02.168Z,91.60
2023-04-07T03:10:29.173Z,92.10
2023-04-07T03:12:56.064Z,92.30
2023-04-07T03:15:23.178Z,92.30
2023-04-07T03:17:50.606Z,92.30
2023-04-07T03:20:17.682Z,92.40
2023-04-07T03:22:44.765Z,92.20
2023-04-07T03:25:11.992Z,92.30
2023-04-07T03:27:38.968Z,92.90
2023-04-07T03:30:07.011Z,92.70
2023-04-07T03:32:33.935Z,93.00
2023-04-07T03:35:00.946Z,92.80
2023-04-07T03:37:27.905Z,92.60
2023-04-07T03:39:54.839Z,92.80
2023-04-07T03:42:21.824Z,92.90
2023-04-07T03:44:49.012Z,92.90
2023-04-07T03:47:16.043Z,93.10
2023-04-07T03:49:43.093Z,93.00
2023-04-07T03:52:10.021Z,93.10
2023-04-07T03:54:37.092Z,93.50
2023-04-07T03:57:04.243Z,93.20
2023-04-07T03:59:31.397Z,93.30
2023-04-07T04:01:58.764Z,93.70
2023-04-07T04:04:26.045Z,93.60
2023-04-07T04:06:53.036Z,93.40
2023-04-07T04:09:20.914Z,93.50
2023-04-07T04:11:47.984Z,93.30
2023-04-07T04:14:14.985Z,93.40
2023-04-07T04:16:41.996Z,93.50
2023-04-07T04:19:08.943Z,93.30
2023-04-07T04:21:35.859Z,93.30
2023-04-07T04:24:03.884Z,93.90
2023-04-07T04:26:31.106Z,93.90
2023-04-07T04:28:57.954Z,93.80
2023-04-07T04:31:24.895Z,93.90
2023-04-07T04:33:52.734Z,93.90
2023-04-07T04:36:19.964Z,94.10
2023-04-07T04:38:46.944Z,94.00
2023-04-07T04:41:14.015Z,94.30
2023-04-07T04:43:42.182Z,94.50
2023-04-07T04:46:20.929Z,94.60
2023-04-07T04:48:47.926Z,94.90
2023-04-07T04:51:15.109Z,94.80
2023-04-07T04:53:43.162Z,94.50
2023-04-07T04:56:10.321Z,94.60
2023-04-07T04:58:40.381Z,94.50
2023-04-07T05:01:07.344Z,95.10
2023-04-07T05:03:34.396Z,94.80
2023-04-07T05:06:01.434Z,94.80
2023-04-07T05:08:28.636Z,94.90
2023-04-07T05:10:55.850Z,94.50
2023-04-07T05:13:22.838Z,94.80
2023-04-07T05:15:49.854Z,94.90
2023-04-07T05:18:16.798Z,94.80
2023-04-07T05:20:44.734Z,94.80
2023-04-07T05:23:11.882Z,94.70
2023-04-07T05:25:38.931Z,94.70
2023-04-07T05:28:06.480Z,94.70
2023-04-07T05:30:33.775Z,94.50
2023-04-07T05:33:01.677Z,94.60
2023-04-07T05:35:28.620Z,94.50
2023-04-07T05:37:55.706Z,94.50
2023-04-07T05:40:22.979Z,94.10
2023-04-07T05:42:50.240Z,93.80
2023-04-07T05:45:17.377Z,94.00
2023-04-07T05:47:44.511Z,93.40
2023-04-07T05:50:12.479Z,94.10
2023-04-07T05:52:39.492Z,93.10
2023-04-07T05:55:06.911Z,92.20
2023-04-07T05:57:34.828Z,92.40
2023-04-07T06:00:05.075Z,92.20
2023-04-07T06:02:32.559Z,92.20
2023-04-07T06:04:59.769Z,92.00
2023-04-07T06:07:26.709Z,92.00
2023-04-07T06:15:45.126Z,91.80
2023-04-07T06:18:12.104Z,91.80
2023-04-07T06:20:39.561Z,91.60
2023-04-07T06:23:13.290Z,91.00
2023-04-07T06:25:40.526Z,91.00
2023-04-07T06:28:07.573Z,90.50
2023-04-07T06:30:34.984Z,90.60
2023-04-07T06:33:02.209Z,89.80
2023-04-07T06:35:29.375Z,85.70
2023-04-07T06:37:56.960Z,86.80
2023-04-07T06:40:24.079Z,85.20
2023-04-07T06:42:51.713Z,80.80
2023-04-07T06:45:20.633Z,80.20
2023-04-07T06:47:48.355Z,77.80
2023-04-07T06:50:15.379Z,71.50
2023-04-07T06:52:42.396Z,69.10
2023-04-07T06:55:09.746Z,65.70
2023-04-07T06:57:36.976Z,62.40
2023-04-07T07:00:04.264Z,58.50
2023-04-07T07:02:31.405Z,57.60
2023-04-07T07:04:58.652Z,52.30
2023-04-07T07:07:26.149Z,53.90
2023-04-07T07:09:54.580Z,50.20
2023-04-07T07:12:21.516Z,48.70
2023-04-07T07:15:11.813Z,47.40
2023-04-07T07:17:38.849Z,45.50
2023-04-07T07:20:06.553Z,45.20
2023-04-07T07:22:33.632Z,45.10
2023-04-07T07:25:00.614Z,47.20
2023-04-07T07:27:27.394Z,47.30
2023-04-07T07:29:54.317Z,49.40
2023-04-07T07:32:21.319Z,51.90
2023-04-07T07:34:48.220Z,52.00
2023-04-07T07:37:15.904Z,53.10
2023-04-07T07:39:42.769Z,54.80
2023-04-07T07:42:09.613Z,55.30
2023-04-07T07:44:36.515Z,55.30
2023-04-07T07:47:03.381Z,55.00
2023-04-07T07:49:30.601Z,54.80
2023-04-07T07:51:59.600Z,54.60
2023-04-07T07:54:26.583Z,55.60
2023-04-07T07:56:53.513Z,57.00
2023-04-07T07:59:21.597Z,56.70
2023-04-07T08:01:48.527Z,55.70
2023-04-07T08:04:15.611Z,55.50
2023-04-07T08:06:42.857Z,55.70
2023-04-07T08:09:09.797Z,56.10
2023-04-07T08:11:36.649Z,56.00
2023-04-07T08:14:03.610Z,56.90
2023-04-07T08:16:30.852Z,57.30
2023-04-07T08:18:57.764Z,58.50
2023-04-07T08:21:24.609Z,58.50
2023-04-07T08:23:51.561Z,57.90
2023-04-07T08:26:18.446Z,58.50
2023-04-07T08:28:45.309Z,57.30
2023-04-07T08:31:12.244Z,57.50
2023-04-07T08:33:40.329Z,57.90
2023-04-07T08:36:07.372Z,58.20
2023-04-07T08:38:34.318Z,57.50
2023-04-07T08:41:17.308Z,59.10
2023-04-07T08:43:47.271Z,59.30
2023-04-07T08:46:15.546Z,58.80
2023-04-07T08:48:44.804Z,59.40
2023-04-07T08:51:13.928Z,59.60
2023-04-07T08:53:50.424Z,59.50
2023-04-07T08:56:19.594Z,59.20
2023-04-07T08:58:49.903Z,58.20
2023-04-07T09:01:19.207Z,58.20
2023-04-07T09:03:48.712Z,57.80
2023-04-07T09:06:16.406Z,57.70
2023-04-07T09:08:43.254Z,58.60
2023-04-07T09:11:10.251Z,58.50
2023-04-07T09:13:37.134Z,58.40
2023-04-07T09:16:04.207Z,58.00
2023-04-07T09:18:31.146Z,57.50
2023-04-07T09:21:03.052Z,57.30
2023-04-07T09:23:32.207Z,58.20
2023-04-07T09:26:01.382Z,59.00
2023-04-07T09:28:48.264Z,58.80
2023-04-07T09:31:15.407Z,58.60
2023-04-07T09:33:42.765Z,57.70
2023-04-07T09:36:10.533Z,58.20
2023-04-07T09:38:39.314Z,57.50
2023-04-07T09:41:16.898Z,58.50
2023-04-07T09:43:46.602Z,57.10
2023-04-07T09:46:16.306Z,57.70
2023-04-07T09:48:45.426Z,57.10
2023-04-07T09:51:13.801Z,56.30
2023-04-07T09:53:49.158Z,56.30
2023-04-07T09:56:18.813Z,57.60
2023-04-07T09:58:47.494Z,57.50
2023-04-07T10:01:19.148Z,57.30
2023-04-07T10:03:47.403Z,58.60
2023-04-07T10:06:14.880Z,57.70
2023-04-07T10:08:43.117Z,58.20
2023-04-07T10:11:11.135Z,57.50
2023-04-07T10:13:40.333Z,57.40
2023-04-07T10:16:08.046Z,57.20
2023-04-07T10:18:36.880Z,57.30
2023-04-07T10:21:08.179Z,58.20
2023-04-07T10:23:57.479Z,58.10
2023-04-07T10:26:30.524Z,57.10
2023-04-07T10:29:04.565Z,57.60
2023-04-07T10:31:32.045Z,57.10
2023-04-07T10:33:59.277Z,57.90
2023-04-07T10:36:26.530Z,58.30
2023-04-07T10:39:08.689Z,58.70
2023-04-07T10:41:40.445Z,58.30
2023-04-07T10:44:09.429Z,57.50
2023-04-07T10:46:45.415Z,57.70
2023-04-07T10:49:13.436Z,57.90
2023-04-07T10:51:40.369Z,58.20
2023-04-07T10:54:17.817Z,59.00
2023-04-07T10:57:02.946Z,59.00
2023-04-07T10:59:30.672Z,58.60
2023-04-07T11:02:12.750Z,56.40
2023-04-07T11:04:45.241Z,55.00
2023-04-07T11:07:14.446Z,56.20
2023-04-07T11:09:41.452Z,56.50
2023-04-07T11:12:08.703Z,57.50
2023-04-07T11:14:40.231Z,57.10
2023-04-07T11:17:14.987Z,56.70
2023-04-07T11:19:52.560Z,57.30
2023-04-07T11:22:29.179Z,56.90
2023-04-07T11:24:57.073Z,57.50
2023-04-07T11:27:24.101Z,58.00
2023-04-07T11:29:50.980Z,57.70
2023-04-07T11:32:29.626Z,58.20
2023-04-07T11:34:57.493Z,58.50
2023-04-07T11:37:28.896Z,58.10
2023-04-07T11:39:58.219Z,57.90
2023-04-07T11:42:35.784Z,58.60
2023-04-07T11:45:03.220Z,58.60
2023-04-07T11:47:36.873Z,58.30
2023-04-07T11:50:04.057Z,58.60
2023-04-07T11:52:42.236Z,58.00
2023-04-07T11:55:22.479Z,57.20
2023-04-07T11:57:51.671Z,56.90
2023-04-07T12:00:19.372Z,58.70
2023-04-07T12:02:46.812Z,58.40
2023-04-07T12:05:13.916Z,58.10
2023-04-07T12:07:52.395Z,58.30
2023-04-07T12:10:24.029Z,58.10
2023-04-07T12:12:51.716Z,57.00
2023-04-07T12:15:18.705Z,58.30
2023-04-07T12:17:47.520Z,57.30
2023-04-07T12:20:15.986Z,56.50
2023-04-07T12:22:42.989Z,56.30
2023-04-07T12:25:10.017Z,56.00
2023-04-07T12:27:43.265Z,55.30
2023-04-07T12:30:12.649Z,55.20
2023-04-07T12:32:40.291Z,57.20
2023-04-07T12:35:07.327Z,57.10
2023-04-07T12:37:34.193Z,57.30
2023-04-07T12:40:01.089Z,55.50
2023-04-07T12:42:28.048Z,55.90
2023-04-07T12:44:54.963Z,56.00
2023-04-07T12:47:21.977Z,54.70
2023-04-07T12:49:50.181Z,56.10
2023-04-07T12:52:17.454Z,55.10
2023-04-07T12:54:45.221Z,55.40
2023-04-07T12:57:12.324Z,55.20
2023-04-07T12:59:39.463Z,54.90
2023-04-07T13:02:06.922Z,54.90
2023-04-07T13:04:35.224Z,55.30
2023-04-07T13:07:03.246Z,56.00
2023-04-07T13:09:30.273Z,55.40
2023-04-07T13:11:57.832Z,55.10
2023-04-07T13:14:25.354Z,55.20
2023-04-07T13:16:52.732Z,55.40
2023-04-07T13:19:19.710Z,54.70
2023-04-07T13:21:48.146Z,53.70
2023-04-07T13:24:15.979Z,55.90
2023-04-07T13:26:43.374Z,54.70
2023-04-07T13:29:10.695Z,55.40
2023-04-07T13:31:37.646Z,54.60
2023-04-07T13:34:04.622Z,55.20
2023-04-07T13:36:31.585Z,55.60
2023-04-07T13:38:58.478Z,55.30
2023-04-07T13:41:26.714Z,54.90
2023-04-07T13:43:53.711Z,55.80
2023-04-07T13:46:28.456Z,55.60
2023-04-07T13:48:56.734Z,55.40
2023-04-07T13:51:23.664Z,56.00
2023-04-07T13:53:51.035Z,56.60
2023-04-07T13:56:18.216Z,55.70
2023-04-07T13:58:45.293Z,56.80
2023-04-07T14:01:12.630Z,56.80
2023-04-07T14:03:39.642Z,55.30
2023-04-07T14:06:06.653Z,55.40
2023-04-07T14:08:33.946Z,55.60
2023-04-07T14:11:01.108Z,56.00
2023-04-07T14:13:28.064Z,55.80
2023-04-07T14:15:55.892Z,55.60
2023-04-07T14:18:23.695Z,55.30
2023-04-07T14:20:50.757Z,55.70
2023-04-07T14:23:26.586Z,55.70
2023-04-07T14:26:01.400Z,54.90
2023-04-07T14:28:28.767Z,55.40
2023-04-07T14:30:55.988Z,55.50
2023-04-07T14:33:23.342Z,54.30
2023-04-07T14:35:50.459Z,54.50
2023-04-07T14:38:17.644Z,54.50
2023-04-07T14:40:45.317Z,55.50
2023-04-07T14:43:12.596Z,55.60
2023-04-07T14:45:40.267Z,54.70
2023-04-07T14:48:07.637Z,54.30
2023-04-07T14:50:34.797Z,55.50
2023-04-07T14:53:02.335Z,55.20
2023-04-07T14:55:30.874Z,55.90
2023-04-07T14:57:58.326Z,55.30
2023-04-07T15:00:27.164Z,55.20
2023-04-07T15:02:54.946Z,54.60
2023-04-07T15:05:26.041Z,54.20
2023-04-07T15:07:53.045Z,55.00
2023-04-07T15:10:20.980Z,54.70
2023-04-07T15:12:48.746Z,53.90
2023-04-07T15:15:16.042Z,54.30
2023-04-07T15:17:44.849Z,53.50
2023-04-07T15:20:13.119Z,54.90
2023-04-07T15:22:40.696Z,53.30
2023-04-07T15:25:08.557Z,53.80
2023-04-07T15:27:35.494Z,54.00
2023-04-07T15:30:02.662Z,54.20
2023-04-07T15:32:31.571Z,55.40
2023-04-07T15:34:58.551Z,55.20
2023-04-07T15:37:27.255Z,55.70
2023-04-07T15:39:54.343Z,56.20
2023-04-07T15:42:21.288Z,55.80
2023-04-07T15:44:48.339Z,55.80
2023-04-07T15:47:15.195Z,56.20
2023-04-07T15:49:42.260Z,56.20
2023-04-07T15:52:09.456Z,55.50
2023-04-07T15:54:36.318Z,56.00
2023-04-07T15:57:03.424Z,55.40
2023-04-07T15:59:30.963Z,56.20
2023-04-07T16:01:58.667Z,56.00
2023-04-07T16:04:25.827Z,55.20
2023-04-07T16:06:52.851Z,55.60
2023-04-07T16:09:19.764Z,56.40
2023-04-07T16:11:46.690Z,56.80
2023-04-07T16:14:13.581Z,56.20
2023-04-07T16:16:41.518Z,57.50
2023-04-07T16:19:08.467Z,57.60
2023-04-07T16:21:35.670Z,57.30
2023-04-07T16:24:02.787Z,57.70
2023-04-07T16:26:29.941Z,57.80
2023-04-07T16:28:56.855Z,57.90
2023-04-07T16:31:24.481Z,58.00
2023-04-07T16:33:51.685Z,57.50
2023-04-07T16:36:18.700Z,57.80
2023-04-07T16:38:45.789Z,58.50
2023-04-07T16:41:12.738Z,59.80
2023-04-07T16:43:39.704Z,58.80
2023-04-07T16:46:07.519Z,58.90
2023-04-07T16:48:35.611Z,58.80
2023-04-07T16:51:03.457Z,59.20
2023-04-07T16:53:30.893Z,58.80
2023-04-07T16:56:00.486Z,58.80
2023-04-07T16:58:32.345Z,59.00
2023-04-07T17:03:56.111Z,58.90
2023-04-07T17:17:41.597Z,58.90
2023-04-07T17:20:35.246Z,58.60
2023-04-07T18:02:41.553Z,60.50
2023-04-07T18:05:09.681Z,60.90
2023-04-07T18:07:36.661Z,62.00
2023-04-07T18:10:03.679Z,62.80
2023-04-07T18:12:31.596Z,63.50
2023-04-07T18:14:58.451Z,65.30
2023-04-07T18:17:25.532Z,65.60
2023-04-07T18:19:52.510Z,67.00
2023-04-07T18:22:19.376Z,68.20
2023-04-07T18:24:46.218Z,69.70
2023-04-07T18:27:13.116Z,71.10
2023-04-07T18:29:39.959Z,72.50
2023-04-07T18:32:06.859Z,74.10
2023-04-07T18:34:33.779Z,75.10
2023-04-07T18:37:01.067Z,75.90
2023-04-07T18:39:28.312Z,77.10
2023-04-07T18:41:57.314Z,78.10
2023-04-07T18:44:24.898Z,80.00
2023-04-07T18:46:51.863Z,82.40
2023-04-07T18:49:18.729Z,84.20
2023-04-07T18:51:48.124Z,86.40
2023-04-07T18:54:15.048Z,88.70
2023-04-07T18:56:41.863Z,90.50
2023-04-07T18:59:08.994Z,92.60
2023-04-07T19:01:36.493Z,94.00
2023-04-07T19:04:03.441Z,95.00
2023-04-07T19:06:31.992Z,96.70
2023-04-07T19:08:59.135Z,98.20
2023-04-07T19:11:26.971Z,99.70
2023-04-07T19:13:55.729Z,99.90
2023-04-07T19:16:26.225Z,99.90
2023-04-07T19:18:53.644Z,99.90
2023-04-07T19:21:20.697Z,99.90
2023-04-07T19:23:47.989Z,99.90
2023-04-07T19:26:15.245Z,99.90
2023-04-07T19:28:42.292Z,99.90
2023-04-07T19:31:09.408Z,99.90
2023-04-07T19:33:36.800Z,99.90
2023-04-07T19:36:04.731Z,99.90
2023-04-07T19:38:31.860Z,99.90
2023-04-07T19:40:58.943Z,99.90
2023-04-07T19:43:25.965Z,99.90
2023-04-07T19:45:53.062Z,99.90
2023-04-07T19:48:20.054Z,99.90
2023-04-07T19:50:49.532Z,99.90
2023-04-07T19:53:16.720Z,99.90
2023-04-07T19:55:47.185Z,99.90
2023-04-07T19:58:16.993Z,99.90
2023-04-07T20:00:45.546Z,99.90
2023-04-07T20:03:12.694Z,99.90
2023-04-07T20:05:39.664Z,99.90
2023-04-07T20:08:06.521Z,99.90
2023-04-07T20:10:33.351Z,99.90
2023-04-07T20:13:00.260Z,99.90
2023-04-07T20:15:27.188Z,99.90
2023-04-07T20:17:54.163Z,99.90
2023-04-07T20:20:22.225Z,99.90
2023-04-07T20:22:49.154Z,99.90
2023-04-07T20:25:16.042Z,99.90
2023-04-07T20:27:45.342Z,99.90
2023-04-07T20:30:12.223Z,99.90
2023-04-07T20:32:40.119Z,99.90
2023-04-07T20:35:07.710Z,99.90
2023-04-07T20:37:34.507Z,99.90
2023-04-07T20:40:01.539Z,99.90
2023-04-07T20:42:28.334Z,99.90
2023-04-07T20:45:02.214Z,99.90
2023-04-07T20:47:31.167Z,99.90
2023-04-07T20:49:58.735Z,99.90
2023-04-07T20:52:27.210Z,99.90
2023-04-07T20:54:54.096Z,99.90
2023-04-07T20:57:20.930Z,99.90
2023-04-07T20:59:47.794Z,99.90
2023-04-07T21:02:14.824Z,99.90
2023-04-07T21:04:41.783Z,99.90
2023-04-07T21:07:08.594Z,99.90
2023-04-07T21:09:35.760Z,99.90
2023-04-07T21:12:03.519Z,99.90
2023-04-07T21:14:31.963Z,99.90
2023-04-07T21:16:59.530Z,99.90
2023-04-07T21:19:26.440Z,99.90
2023-04-07T21:21:53.596Z,99.90
2023-04-07T21:24:21.265Z,99.90
2023-04-07T21:26:48.184Z,99.90
2023-04-07T21:29:15.276Z,99.90
2023-04-07T21:31:42.845Z,99.90
2023-04-07T21:34:09.770Z,99.90
2023-04-07T21:36:36.669Z,99.90
2023-04-07T21:39:03.861Z,99.90
2023-04-07T21:41:30.948Z,99.90
2023-04-07T21:43:58.931Z,99.90
2023-04-07T21:49:14.995Z,99.90
2023-04-07T21:51:42.893Z,99.90
2023-04-07T21:54:11.110Z,99.90
2023-04-07T21:56:39.635Z,99.90
2023-04-07T21:59:08.091Z,99.90
2023-04-07T22:01:37.817Z,99.90
2023-04-07T22:04:07.807Z,99.90
2023-04-07T22:06:36.912Z,99.90
2023-04-07T22:09:07.319Z,99.90
2023-04-07T22:11:35.715Z,99.90
2023-04-07T22:14:06.067Z,99.90
2023-04-07T22:16:37.805Z,99.90
2023-04-07T22:19:07.276Z,99.90
2023-04-07T22:21:38.263Z,99.90
2023-04-07T22:24:11.503Z,99.90
2023-04-07T22:26:41.908Z,99.90
2023-04-07T22:29:13.955Z,99.90
2023-04-07T22:31:43.076Z,99.90
2023-04-07T22:34:12.819Z,99.90
2023-04-07T22:36:45.169Z,99.90
2023-04-07T22:39:15.564Z,99.90
2023-04-07T22:41:47.090Z,99.90
2023-04-07T22:44:18.476Z,99.90
2023-04-07T22:46:47.777Z,99.90
2023-04-07T22:49:20.618Z,99.90
2023-04-07T22:51:53.730Z,99.90
2023-04-07T22:54:27.239Z,99.90
2023-04-07T23:00:05.023Z,99.90
2023-04-07T23:02:34.392Z,99.90
2023-04-07T23:05:04.462Z,99.90
2023-04-07T23:07:34.989Z,99.90
2023-04-07T23:10:06.446Z,99.90
2023-04-07T23:12:36.763Z,99.90
2023-04-07T23:15:08.973Z,99.90
2023-04-07T23:17:40.853Z,99.90
2023-04-07T23:20:11.124Z,99.90
2023-04-07T23:22:40.440Z,99.90
2023-04-07T23:25:10.061Z,99.90
2023-04-07T23:27:39.453Z,99.90
2023-04-07T23:30:09.689Z,99.90
2023-04-07T23:32:38.386Z,99.90
2023-04-07T23:35:17.650Z,99.90
2023-04-07T23:37:46.810Z,99.90
2023-04-07T23:40:16.008Z,99.90
2023-04-07T23:42:44.447Z,99.90
2023-04-07T23:45:12.451Z,99.90
2023-04-07T23:47:39.826Z,99.90
2023-04-07T23:50:07.748Z,99.90
2023-04-07T23:52:35.721Z,99.90
2023-04-07T23:55:03.874Z,99.90
2023-04-07T23:57:31.881Z,99.90
